This is the latest recevied weather packets stored in our database for station/object K4CRS-13. If no packets are shown the sender has not sent any weather packets the latest 10 day(s).
| Time | Temp. | Humidity | Pressure | Rain* | Wind** | Luminosity | Snow |
|---|---|---|---|---|---|---|---|
| 1777937844 | 23.89° C | 45% | 1047 hPa | 0 mm | - | 70 W/m² | - |
| 1777937540 | 23.89° C | 45% | 1046.9 hPa | 0 mm | - | 81 W/m² | - |
| 1777937237 | 23.89° C | 45% | 1046.8 hPa | 0 mm | - | 92 W/m² | - |
| 1777936934 | 24.44° C | 44% | 1046.8 hPa | 0 mm | - | 105 W/m² | - |
| 1777936631 | 24.44° C | 44% | 1047.1 hPa | 0 mm | - | 113 W/m² | - |
| 1777936327 | 24.44° C | 43% | 1046.9 hPa | 0 mm | - | 129 W/m² | - |
| 1777936023 | 24.44° C | 42% | 1046.8 hPa | 0 mm | - | 143 W/m² | - |
| 1777935722 | 24.44° C | 42% | 1047 hPa | 0 mm | - | 158 W/m² | - |
| 1777935420 | 25° C | 44% | 1047 hPa | 0 mm | - | 173 W/m² | - |
| 1777935115 | 25° C | 42% | 1047.1 hPa | 0 mm | - | 186 W/m² | - |
| 1777934813 | 25° C | 43% | 1047 hPa | 0 mm | - | 202 W/m² | - |
| 1777934510 | 24.44° C | 43% | 1047.2 hPa | 0 mm | - | 222 W/m² | - |
| 1777934207 | 24.44° C | 42% | 1047.1 hPa | 0 mm | - | 70 W/m² | - |
| 1777933902 | 25° C | 43% | 1047.1 hPa | 0 mm | - | 185 W/m² | - |
| 1777933600 | 25.56° C | 42% | 1047 hPa | 0 mm | - | 264 W/m² | - |
| 1777933296 | 25.56° C | 42% | 1047 hPa | 0 mm | - | 283 W/m² | - |
| 1777932994 | 25.56° C | 41% | 1047.3 hPa | 0 mm | - | 301 W/m² | - |
| 1777932691 | 25.56° C | 42% | 1047.3 hPa | 0 mm | - | 308 W/m² | - |
| 1777932387 | 25° C | 42% | 1047.3 hPa | 0 mm | - | 331 W/m² | - |
| 1777932085 | 25° C | 43% | 1047.2 hPa | 0 mm | - | 362 W/m² | - |
| 1777931781 | 25° C | 43% | 1047.3 hPa | 0 mm | - | 358 W/m² | - |
| 1777931479 | 25° C | 43% | 1047.5 hPa | 0 mm | - | 391 W/m² | - |
| 1777931174 | 25° C | 45% | 1047.5 hPa | 0 mm | - | 414 W/m² | - |
| 1777930871 | 26.11° C | 44% | 1047.4 hPa | 0 mm | - | 91 W/m² | - |
| 1777930567 | 25.56° C | 43% | 1047.4 hPa | 0 mm | - | 436 W/m² | - |
* Rain latest hour (hover to see other rain measurements)
** Current wind speed in m/s (hover to see current wind gust speed)